createdAt,value
2018-12-29T00:02:14.523Z,5.90
2018-12-29T00:04:56.423Z,5.90
2018-12-29T00:07:38.843Z,5.90
2018-12-29T00:10:20.743Z,5.90
2018-12-29T00:13:02.939Z,6.00
2018-12-29T00:15:45.379Z,6.00
2018-12-29T00:18:27.280Z,6.00
2018-12-29T00:21:09.911Z,6.00
2018-12-29T00:23:52.015Z,6.10
2018-12-29T00:32:15.028Z,6.30
2018-12-29T00:34:57.310Z,6.30
2018-12-29T00:37:39.307Z,6.30
2018-12-29T00:45:41.975Z,6.60
2018-12-29T00:48:24.619Z,6.50
2018-12-29T00:51:06.943Z,6.50
2018-12-29T00:53:48.839Z,6.50
2018-12-29T00:59:10.623Z,6.60
2018-12-29T01:01:52.463Z,6.70
2018-12-29T01:04:34.915Z,6.70
2018-12-29T01:07:17.267Z,6.70
2018-12-29T01:09:59.067Z,6.70
2018-12-29T01:12:40.983Z,6.80
2018-12-29T01:15:22.975Z,6.80
2018-12-29T01:18:04.916Z,6.80
2018-12-29T01:20:47.027Z,6.90
2018-12-29T01:23:29.250Z,6.90
2018-12-29T01:26:11.479Z,6.90
2018-12-29T01:28:53.591Z,6.90
2018-12-29T01:31:35.763Z,6.90
2018-12-29T01:34:17.892Z,6.90
2018-12-29T01:39:58.595Z,6.90
2018-12-29T01:42:40.664Z,6.90
2018-12-29T01:45:22.699Z,6.90
2018-12-29T01:48:05.207Z,6.90
2018-12-29T01:50:47.399Z,6.90
2018-12-29T01:53:29.367Z,6.90
2018-12-29T01:56:11.541Z,6.90
2018-12-29T01:58:53.575Z,7.00
2018-12-29T02:01:35.587Z,7.00
2018-12-29T02:04:18.209Z,7.00
2018-12-29T02:07:00.508Z,7.00
2018-12-29T02:09:42.459Z,7.00
2018-12-29T02:12:24.723Z,7.00
2018-12-29T02:15:06.675Z,7.00
2018-12-29T02:17:48.835Z,7.00
2018-12-29T02:20:30.954Z,7.00
2018-12-29T02:23:13.070Z,7.00
2018-12-29T02:25:55.295Z,7.00
2018-12-29T02:28:37.448Z,7.10
2018-12-29T02:31:19.455Z,7.00
2018-12-29T02:34:01.479Z,7.00
2018-12-29T02:36:43.790Z,7.00
2018-12-29T02:39:26.072Z,7.00
2018-12-29T02:42:08.184Z,7.00
2018-12-29T02:44:50.276Z,7.00
2018-12-29T02:47:32.495Z,7.00
2018-12-29T02:50:14.816Z,7.00
2018-12-29T02:52:56.824Z,7.00
2018-12-29T02:55:38.868Z,7.00
2018-12-29T02:58:21.139Z,7.00
2018-12-29T03:04:00.180Z,7.00
2018-12-29T03:06:43.593Z,7.00
2018-12-29T03:09:25.849Z,7.00
2018-12-29T03:12:07.887Z,7.00
2018-12-29T03:14:38.504Z,7.00
2018-12-29T03:17:28.055Z,7.00
2018-12-29T03:20:10.470Z,7.00
2018-12-29T03:22:52.811Z,7.00
2018-12-29T03:25:35.168Z,7.00
2018-12-29T03:28:05.882Z,7.00
2018-12-29T03:30:48.093Z,7.00
2018-12-29T03:33:30.687Z,7.00
2018-12-29T03:36:13.002Z,7.00
2018-12-29T03:38:55.132Z,7.00
2018-12-29T03:41:37.640Z,7.00
2018-12-29T03:44:19.691Z,7.10
2018-12-29T03:47:01.875Z,7.10
2018-12-29T03:49:43.779Z,7.10
2018-12-29T03:52:25.927Z,7.10
2018-12-29T03:55:08.007Z,7.10
2018-12-29T03:57:50.267Z,7.10
2018-12-29T04:03:13.719Z,7.10
2018-12-29T04:05:58.229Z,7.10
2018-12-29T04:08:40.659Z,7.10
2018-12-29T04:11:22.866Z,7.10
2018-12-29T04:14:04.640Z,7.00
2018-12-29T04:19:27.637Z,7.10
2018-12-29T04:22:10.226Z,7.10
2018-12-29T04:24:52.052Z,7.10
2018-12-29T04:27:34.283Z,7.10
2018-12-29T04:30:16.534Z,7.10
2018-12-29T04:32:58.725Z,7.10
2018-12-29T04:35:40.347Z,7.10
2018-12-29T04:38:22.466Z,7.10
2018-12-29T04:41:03.971Z,7.10
2018-12-29T04:43:46.544Z,7.10
2018-12-29T04:46:28.399Z,7.10
2018-12-29T04:48:59.036Z,7.00
2018-12-29T04:51:40.819Z,7.00
2018-12-29T04:54:23.419Z,7.00
2018-12-29T04:57:05.348Z,7.00
2018-12-29T04:59:47.549Z,7.00
2018-12-29T05:02:29.695Z,7.00
2018-12-29T05:05:11.939Z,7.10
2018-12-29T05:07:54.299Z,7.10
2018-12-29T05:10:36.579Z,7.10
2018-12-29T05:13:18.203Z,7.10
2018-12-29T05:16:01.398Z,7.10
2018-12-29T05:18:43.531Z,7.20
2018-12-29T05:21:25.436Z,7.20
2018-12-29T05:24:07.951Z,7.20
2018-12-29T05:26:50.268Z,7.10
2018-12-29T05:29:32.447Z,7.10
2018-12-29T05:32:14.851Z,7.10
2018-12-29T05:34:57.155Z,7.10
2018-12-29T05:37:39.599Z,7.10
2018-12-29T05:40:22.139Z,7.10
2018-12-29T05:43:04.377Z,7.00
2018-12-29T05:45:46.819Z,7.00
2018-12-29T05:48:29.495Z,7.00
2018-12-29T05:51:11.811Z,7.00
2018-12-29T05:53:54.034Z,7.00
2018-12-29T05:56:36.407Z,7.00
2018-12-29T05:59:19.314Z,7.00
2018-12-29T06:02:04.580Z,7.00
2018-12-29T06:04:47.179Z,7.00
2018-12-29T06:07:29.872Z,7.00
2018-12-29T06:10:12.166Z,7.00
2018-12-29T06:12:54.286Z,7.00
2018-12-29T06:15:36.376Z,7.00
2018-12-29T06:18:06.983Z,7.00
2018-12-29T06:20:56.908Z,7.00
2018-12-29T06:23:41.022Z,7.00
2018-12-29T06:26:23.449Z,6.90
2018-12-29T06:29:06.070Z,6.90
2018-12-29T06:31:48.180Z,6.90
2018-12-29T06:34:30.728Z,6.90
2018-12-29T06:37:13.085Z,6.90
2018-12-29T06:39:55.263Z,6.90
2018-12-29T06:42:40.083Z,6.90
2018-12-29T06:45:22.202Z,6.90
2018-12-29T06:54:02.752Z,7.00
2018-12-29T06:56:44.895Z,6.90
2018-12-29T06:59:27.142Z,6.80
2018-12-29T07:01:57.708Z,6.80
2018-12-29T07:04:47.682Z,6.80
2018-12-29T07:07:30.307Z,6.80
2018-12-29T07:10:12.459Z,6.90
2018-12-29T07:12:55.023Z,6.80
2018-12-29T07:15:37.318Z,6.80
2018-12-29T07:18:19.950Z,6.80
2018-12-29T07:21:02.461Z,6.90
2018-12-29T07:23:44.410Z,6.80
2018-12-29T07:26:27.927Z,6.80
2018-12-29T07:28:58.570Z,6.80
2018-12-29T07:31:40.531Z,6.80
2018-12-29T07:34:22.827Z,6.90
2018-12-29T07:37:05.304Z,6.90
2018-12-29T07:39:47.926Z,6.90
2018-12-29T07:42:30.355Z,6.90
2018-12-29T07:45:12.899Z,6.90
2018-12-29T07:47:55.192Z,6.90
2018-12-29T07:50:37.599Z,6.90
2018-12-29T07:53:20.027Z,6.90
2018-12-29T07:56:02.495Z,6.90
2018-12-29T07:58:33.087Z,6.90
2018-12-29T08:01:14.810Z,6.90
2018-12-29T08:03:57.123Z,6.90
2018-12-29T08:06:39.629Z,6.90
2018-12-29T08:09:21.839Z,6.80
2018-12-29T08:12:04.171Z,6.80
2018-12-29T08:14:46.794Z,6.90
2018-12-29T08:17:29.463Z,6.80
2018-12-29T08:20:11.751Z,6.80
2018-12-29T08:22:53.831Z,6.80
2018-12-29T08:25:36.281Z,6.90
2018-12-29T08:28:19.819Z,6.90
2018-12-29T08:31:02.482Z,6.90
2018-12-29T08:33:44.550Z,6.90
2018-12-29T08:36:27.143Z,6.90
2018-12-29T08:39:07.655Z,7.00
2018-12-29T08:41:49.798Z,6.90
2018-12-29T08:44:20.199Z,7.00
2018-12-29T08:47:04.739Z,7.00
2018-12-29T08:49:48.199Z,7.00
2018-12-29T08:52:30.366Z,7.00
2018-12-29T08:55:12.678Z,7.00
2018-12-29T08:57:54.572Z,7.10
2018-12-29T09:00:37.247Z,7.10
2018-12-29T09:03:19.754Z,7.10
2018-12-29T09:06:01.771Z,7.10
2018-12-29T09:08:43.895Z,7.20
2018-12-29T09:11:26.123Z,7.20
2018-12-29T09:14:08.484Z,7.20
2018-12-29T09:19:39.796Z,7.20
2018-12-29T09:22:22.339Z,7.30
2018-12-29T09:25:04.851Z,7.30
2018-12-29T09:27:46.940Z,7.30
2018-12-29T09:33:28.555Z,7.20
2018-12-29T09:38:52.659Z,7.30
2018-12-29T09:41:34.643Z,7.30
2018-12-29T09:44:17.024Z,7.30
2018-12-29T09:46:47.368Z,7.40
2018-12-29T09:49:29.559Z,7.40
2018-12-29T09:52:11.787Z,7.50
2018-12-29T09:54:42.811Z,7.50
2018-12-29T09:57:33.777Z,7.60
2018-12-29T10:00:17.847Z,7.60
2018-12-29T10:02:59.804Z,7.70
2018-12-29T10:05:40.498Z,7.70
2018-12-29T10:08:22.830Z,7.70
2018-12-29T10:11:05.348Z,7.70
2018-12-29T10:13:47.275Z,7.70
2018-12-29T10:16:29.615Z,7.70
2018-12-29T10:19:01.050Z,7.70
2018-12-29T10:21:42.932Z,7.60
2018-12-29T10:24:26.139Z,7.60
2018-12-29T10:27:09.111Z,7.60
2018-12-29T10:29:50.911Z,7.70
2018-12-29T10:32:32.971Z,7.60
2018-12-29T10:35:14.979Z,7.60
2018-12-29T10:37:57.431Z,7.60
2018-12-29T10:40:39.418Z,7.60
2018-12-29T10:43:21.280Z,7.60
2018-12-29T10:46:03.712Z,7.60
2018-12-29T10:48:34.137Z,7.60
2018-12-29T10:51:23.561Z,7.70
2018-12-29T10:54:05.430Z,7.70
2018-12-29T10:56:47.215Z,7.70
2018-12-29T10:59:29.376Z,7.70
2018-12-29T11:02:11.575Z,7.70
2018-12-29T11:04:53.257Z,7.70
2018-12-29T11:07:35.512Z,7.70
2018-12-29T11:10:17.842Z,7.80
2018-12-29T11:13:01.255Z,7.70
2018-12-29T11:15:43.113Z,7.70
2018-12-29T11:18:25.584Z,7.70
2018-12-29T11:21:08.129Z,7.70
2018-12-29T11:23:49.973Z,7.60
2018-12-29T11:26:32.543Z,7.70
2018-12-29T11:29:15.078Z,7.70
2018-12-29T11:31:57.791Z,7.70
2018-12-29T11:34:39.996Z,7.70
2018-12-29T11:37:22.031Z,7.70
2018-12-29T11:40:04.547Z,7.70
2018-12-29T11:42:46.627Z,7.60
2018-12-29T11:45:17.266Z,7.50
2018-12-29T11:48:01.163Z,7.60
2018-12-29T11:50:43.810Z,7.60
2018-12-29T11:53:25.991Z,7.60
2018-12-29T11:56:08.098Z,7.70
2018-12-29T11:58:50.379Z,7.70
2018-12-29T12:01:32.567Z,7.60
2018-12-29T12:04:15.071Z,7.60
2018-12-29T12:06:57.648Z,7.50
2018-12-29T12:09:39.715Z,7.50
2018-12-29T12:12:21.751Z,7.50
2018-12-29T12:15:04.079Z,7.50
2018-12-29T12:17:46.159Z,7.40
2018-12-29T12:20:28.169Z,7.40
2018-12-29T12:26:09.522Z,7.50
2018-12-29T12:28:51.823Z,7.60
2018-12-29T12:31:33.645Z,7.60
2018-12-29T12:34:16.251Z,7.50
2018-12-29T12:36:46.838Z,7.60
2018-12-29T12:39:36.259Z,7.50
2018-12-29T12:45:17.470Z,7.40
2018-12-29T12:48:05.200Z,7.40
2018-12-29T12:50:44.455Z,7.30
2018-12-29T12:53:26.111Z,7.30
2018-12-29T12:56:08.503Z,7.20
2018-12-29T12:58:50.640Z,7.20
2018-12-29T13:01:33.263Z,7.20
2018-12-29T13:04:15.358Z,7.30
2018-12-29T13:06:57.612Z,7.20
2018-12-29T13:09:38.225Z,7.30
2018-12-29T13:15:19.587Z,7.20
2018-12-29T13:23:22.061Z,7.20
2018-12-29T13:26:04.082Z,7.10
2018-12-29T13:28:45.966Z,7.10
2018-12-29T13:31:27.971Z,7.00
2018-12-29T13:34:10.941Z,7.00
2018-12-29T13:36:52.891Z,6.90
2018-12-29T13:39:35.163Z,6.90
2018-12-29T13:42:17.372Z,6.90
2018-12-29T13:45:01.158Z,6.90
2018-12-29T13:47:44.479Z,6.90
2018-12-29T13:50:15.091Z,6.80
2018-12-29T13:53:04.610Z,6.80
2018-12-29T13:55:46.834Z,6.80
2018-12-29T13:58:29.095Z,6.80
2018-12-29T14:01:11.181Z,6.80
2018-12-29T14:03:53.484Z,6.70
2018-12-29T14:06:35.813Z,6.70
2018-12-29T14:09:18.189Z,6.70
2018-12-29T14:11:58.883Z,6.70
2018-12-29T14:14:40.835Z,6.70
2018-12-29T14:17:23.288Z,6.70
2018-12-29T14:20:06.127Z,6.70
2018-12-29T14:22:48.225Z,6.70
2018-12-29T14:25:18.992Z,6.70
2018-12-29T14:28:00.763Z,6.70
2018-12-29T14:30:43.141Z,6.70
2018-12-29T14:33:25.659Z,6.70
2018-12-29T14:36:07.468Z,6.70
2018-12-29T14:38:49.513Z,6.70
2018-12-29T14:41:32.158Z,6.70
2018-12-29T14:44:13.914Z,6.70
2018-12-29T14:46:56.423Z,6.70
2018-12-29T14:49:38.150Z,6.70
2018-12-29T14:52:20.065Z,6.80
2018-12-29T14:55:02.047Z,6.70
2018-12-29T14:57:44.469Z,6.70
2018-12-29T15:00:26.483Z,6.70
2018-12-29T15:03:08.759Z,6.70
2018-12-29T15:05:50.532Z,6.60
2018-12-29T15:08:20.971Z,6.60
2018-12-29T15:11:02.905Z,6.50
2018-12-29T15:13:44.198Z,6.60
2018-12-29T15:16:26.507Z,6.60
2018-12-29T15:19:08.866Z,6.60
2018-12-29T15:21:51.193Z,6.60
2018-12-29T15:24:33.151Z,6.60
2018-12-29T15:27:14.925Z,6.60
2018-12-29T15:29:57.111Z,6.70
2018-12-29T15:32:39.367Z,6.70
2018-12-29T15:35:22.431Z,6.70
2018-12-29T15:38:04.230Z,6.70
2018-12-29T15:40:46.117Z,6.70
2018-12-29T15:43:28.535Z,6.70
2018-12-29T15:46:10.642Z,6.70
2018-12-29T15:48:52.682Z,6.70
2018-12-29T15:51:34.895Z,6.60
2018-12-29T15:54:16.930Z,6.60
2018-12-29T15:56:47.355Z,6.50
2018-12-29T15:59:29.299Z,6.50
2018-12-29T16:02:11.244Z,6.50
2018-12-29T16:04:41.706Z,6.50
2018-12-29T16:07:31.227Z,6.60
2018-12-29T16:10:13.146Z,6.50
2018-12-29T16:12:55.671Z,6.60
2018-12-29T16:15:38.011Z,6.60
2018-12-29T16:18:20.620Z,6.60
2018-12-29T16:21:03.125Z,6.60
2018-12-29T16:23:45.734Z,6.60
2018-12-29T16:26:28.233Z,6.60
2018-12-29T16:29:10.468Z,6.60
2018-12-29T16:31:52.054Z,6.60
2018-12-29T16:34:34.428Z,6.60
2018-12-29T16:37:16.535Z,6.60
2018-12-29T16:42:40.391Z,6.60
2018-12-29T16:45:22.574Z,6.60
2018-12-29T16:48:04.969Z,6.60
2018-12-29T16:50:47.172Z,6.60
2018-12-29T16:53:29.630Z,6.60
2018-12-29T16:56:12.543Z,6.60
2018-12-29T16:58:54.494Z,6.60
2018-12-29T17:01:36.971Z,6.60
2018-12-29T17:04:19.291Z,6.60
2018-12-29T17:07:01.642Z,6.50
2018-12-29T17:09:32.402Z,6.40
2018-12-29T17:12:14.613Z,6.40
2018-12-29T17:14:58.215Z,6.30
2018-12-29T17:17:40.749Z,6.30
2018-12-29T17:20:11.122Z,6.30
2018-12-29T17:22:55.255Z,6.40
2018-12-29T17:25:37.262Z,6.40
2018-12-29T17:28:19.939Z,6.40
2018-12-29T17:31:02.023Z,6.40
2018-12-29T17:33:43.906Z,6.40
2018-12-29T17:36:26.448Z,6.40
2018-12-29T17:39:09.004Z,6.50
2018-12-29T17:41:51.016Z,6.50
2018-12-29T17:44:33.148Z,6.50
2018-12-29T17:47:15.063Z,6.40
2018-12-29T17:49:45.470Z,6.40
2018-12-29T17:52:26.075Z,6.40
2018-12-29T17:55:08.184Z,6.40
2018-12-29T17:57:50.759Z,6.40
2018-12-29T18:00:33.408Z,6.40
2018-12-29T18:03:15.780Z,6.40
2018-12-29T18:05:58.436Z,6.40
2018-12-29T18:08:28.972Z,6.40
2018-12-29T18:11:18.502Z,6.40
2018-12-29T18:14:01.143Z,6.40
2018-12-29T18:16:42.014Z,6.40
2018-12-29T18:19:30.449Z,6.40
2018-12-29T18:22:09.184Z,6.40
2018-12-29T18:24:51.315Z,6.40
2018-12-29T18:27:33.783Z,6.40
2018-12-29T18:30:16.227Z,6.40
2018-12-29T18:32:58.605Z,6.40
2018-12-29T18:35:40.680Z,6.40
2018-12-29T18:38:23.215Z,6.40
2018-12-29T18:40:53.790Z,6.40
2018-12-29T18:43:43.376Z,6.40
2018-12-29T18:46:25.439Z,6.40
2018-12-29T18:49:08.814Z,6.40
2018-12-29T18:51:50.518Z,6.50
2018-12-29T18:54:32.715Z,6.40
2018-12-29T18:57:15.175Z,6.50
2018-12-29T18:59:57.395Z,6.40
2018-12-29T19:02:40.025Z,6.40
2018-12-29T19:05:22.115Z,6.40
2018-12-29T19:08:04.115Z,6.40
2018-12-29T19:10:46.680Z,6.40
2018-12-29T19:13:17.350Z,6.40
2018-12-29T19:16:20.791Z,6.50
2018-12-29T19:19:02.667Z,6.40
2018-12-29T19:21:44.735Z,6.40
2018-12-29T19:24:25.474Z,6.40
2018-12-29T19:27:07.735Z,6.40
2018-12-29T19:29:38.582Z,6.40
2018-12-29T19:32:49.344Z,6.40
2018-12-29T19:35:31.205Z,6.40
2018-12-29T19:38:13.531Z,6.40
2018-12-29T19:40:56.413Z,6.40
2018-12-29T19:43:39.376Z,6.30
2018-12-29T19:46:21.567Z,6.30
2018-12-29T19:49:04.132Z,6.30
2018-12-29T19:51:35.243Z,6.30
2018-12-29T19:54:17.660Z,6.30
2018-12-29T19:57:00.096Z,6.30
2018-12-29T19:59:42.891Z,6.30
2018-12-29T20:02:25.158Z,6.30
2018-12-29T20:05:07.168Z,6.30
2018-12-29T20:07:49.735Z,6.30
2018-12-29T20:10:32.000Z,6.30
2018-12-29T20:13:14.402Z,6.20
2018-12-29T20:15:56.576Z,6.20
2018-12-29T20:18:38.342Z,6.20
2018-12-29T20:21:20.794Z,6.20
2018-12-29T20:24:02.748Z,6.20
2018-12-29T20:26:44.792Z,6.20
2018-12-29T20:29:26.435Z,6.20
2018-12-29T20:32:08.494Z,6.20
2018-12-29T20:34:50.652Z,6.20
2018-12-29T20:37:33.196Z,6.20
2018-12-29T20:40:15.591Z,6.20
2018-12-29T20:42:46.151Z,6.10
2018-12-29T20:45:35.571Z,6.10
2018-12-29T20:48:17.590Z,6.10
2018-12-29T20:50:59.965Z,6.00
2018-12-29T20:53:42.629Z,6.00
2018-12-29T20:56:24.714Z,6.00
2018-12-29T20:58:55.267Z,6.00
2018-12-29T21:01:37.754Z,6.00
2018-12-29T21:04:20.326Z,6.00
2018-12-29T21:07:02.784Z,6.00
2018-12-29T21:09:45.252Z,6.00
2018-12-29T21:12:27.054Z,6.00
2018-12-29T21:14:57.771Z,6.00
2018-12-29T21:17:47.328Z,6.00
2018-12-29T21:20:29.179Z,6.00
2018-12-29T21:23:11.463Z,6.00
2018-12-29T21:25:53.875Z,6.00
2018-12-29T21:28:35.508Z,6.00
2018-12-29T21:31:17.898Z,6.00
2018-12-29T21:34:00.265Z,6.00
2018-12-29T21:36:42.777Z,6.00
2018-12-29T21:42:06.948Z,6.00
2018-12-29T21:44:48.728Z,6.10
2018-12-29T21:47:31.075Z,6.10
2018-12-29T21:50:13.323Z,6.10
2018-12-29T21:52:55.388Z,6.10
2018-12-29T21:55:37.838Z,6.10
2018-12-29T21:58:20.043Z,6.10
2018-12-29T22:01:02.143Z,6.10
2018-12-29T22:03:44.374Z,6.10
2018-12-29T22:06:26.761Z,6.10
2018-12-29T22:09:09.566Z,6.10
2018-12-29T22:14:33.080Z,6.00
2018-12-29T22:17:15.036Z,6.00
2018-12-29T22:19:45.976Z,6.00
2018-12-29T22:22:28.336Z,6.00
2018-12-29T22:25:10.901Z,5.90
2018-12-29T22:27:53.183Z,5.90
2018-12-29T22:30:35.576Z,5.90
2018-12-29T22:33:17.943Z,5.90
2018-12-29T22:36:00.080Z,5.90
2018-12-29T22:38:42.768Z,5.90
2018-12-29T22:41:24.823Z,6.00
2018-12-29T22:44:06.683Z,6.00
2018-12-29T22:46:48.979Z,6.00
2018-12-29T22:49:31.324Z,6.00
2018-12-29T22:52:14.278Z,6.00
2018-12-29T22:54:55.968Z,5.90
2018-12-29T22:57:38.316Z,6.00
2018-12-29T23:00:26.663Z,5.90
2018-12-29T23:03:09.355Z,5.90
2018-12-29T23:05:51.387Z,5.90
2018-12-29T23:08:33.693Z,5.90
2018-12-29T23:11:16.281Z,5.90
2018-12-29T23:13:58.742Z,5.90
2018-12-29T23:19:40.785Z,6.00
2018-12-29T23:22:22.448Z,6.10
2018-12-29T23:25:04.423Z,6.00
2018-12-29T23:27:47.410Z,6.00
2018-12-29T23:30:29.664Z,6.00
2018-12-29T23:33:12.157Z,6.00
2018-12-29T23:35:54.600Z,6.00
2018-12-29T23:38:36.324Z,6.00
2018-12-29T23:41:18.560Z,6.00
2018-12-29T23:44:02.078Z,6.00
2018-12-29T23:46:44.487Z,6.00
2018-12-29T23:49:26.275Z,6.00
2018-12-29T23:52:09.129Z,5.90
2018-12-29T23:54:39.627Z,5.90
2018-12-29T23:57:36.575Z,5.90
